• Join FlightAware (Why Join?)
  • Login
  • US Flag 
04:32AM EDT


 

Airport Tracker/Info


-or-


 

Live Flight TrackerFlight Track Log ✈ AWE1600 ✈ 26-Apr-2013 ✈ KBDL - KPHL

Flight Track Log - Related Links

Times and Time Zones

All times are in EDT time to prevent confusion due to time zone crossing. See the AWE1600 flight status page for this flight to view local times or setup timezone preferences in your user account.

Time Position Orientation Groundspeed Altitude Reporting Facility
EDT Latitude Longitude Course Direction KTS MPH feet Rate Location/Type
07:08AM 41.9478 -72.6997 180° South 143 165 1,200  Level Boston Center
07:09AM 41.9708 -72.6300 66° East 151 174 4,000 2,700 Climbing Boston Center
07:10AM 41.6988 -72.5667 180° South  Level FlightAware Approximate
07:10AM 41.9106 -72.5908 154° Southeast 163 188 7,400  Level Boston Center
07:11AM 41.6244 -72.5199 132° Southeast  Level FlightAware Approximate
07:11AM 41.8439 -72.5486 155° Southeast 238 274 10,800  Level Boston Center
07:12AM 41.5676 -72.4347 132° Southeast  Level FlightAware Approximate
07:12AM 41.7439 -72.4903 156° South 316 364 13,300  Level Boston Center
07:13AM 41.5127 -72.3500 180° South  Level FlightAware Approximate
07:13AM 41.6583 -72.4400 156° South 363 418 16,500  Level Boston Center
07:14AM 41.5583 -72.4233 173° South 369 425 18,700 2,400 Climbing Boston Center
07:15AM 41.4417 -72.4261 181° South 375 432 21,300 1,620 Climbing Boston Center
07:16AM 41.3292 -72.4289 181° South 386 444 22,000 840 Climbing Boston Center
07:17AM 41.2353 -72.4733 200° South 401 461 23,000 960 Climbing Boston Center
07:18AM 41.1500 -72.5642 219° Southwest 384 442 24,000 480 Climbing Boston Center
07:19AM 41.0622 -72.6575 219° Southwest 396 456 24,000  Level Boston Center
07:20AM 40.9744 -72.7536 220° Southwest 408 470 24,000  Level Boston Center
07:21AM 40.8783 -72.8381 214° Southwest 418 481 24,000 -420 Level Boston Center
07:23AM 40.7186 -72.9561 209° Southwest 448 516 23,000 -840 Descending New York Center
07:24AM 40.6194 -73.0267 208° Southwest 430 495 21,900 -1,200 Descending New York Center
07:25AM 40.5242 -73.0972 209° Southwest 410 472 20,700 -960 Descending New York Center
07:26AM 40.4333 -73.1625 209° Southwest 391 450 20,000 -360 Descending New York Center
07:27AM 40.3425 -73.2272 209° Southwest 384 442 20,000 -720 Level New York Center
07:28AM 40.2331 -73.2778 199° South 384 442 18,600 -1,020 Descending New York Center
07:29AM 40.1325 -73.3067 192° South 379 436 18,000 -300 Descending New York Center
07:30AM 40.0400 -73.3358 194° South 379 436 18,000 -120 Level New York Center
07:31AM 39.9372 -73.3697 194° South 374 430 17,800 -660 Descending New York Center
07:32AM 39.8742 -73.4811 234° Southwest 346 398 16,700 -1,080 Descending New York Center
07:33AM 39.8194 -73.5869 236° Southwest 337 388 15,700 -1,020 Descending New York Center
07:34AM 39.7628 -73.6900 234° Southwest 343 395 14,700 -900 Descending New York Center
07:35AM 39.7189 -73.7800 238° Southwest 348 400 14,000 -480 Descending New York Center
07:35AM 39.6678 -73.8744 235° Southwest 346 398 13,900 -60 Descending Washington Center
07:36AM 39.6131 -73.9728 234° Southwest 346 398 13,900  Level Washington Center
07:37AM 39.5581 -74.0761 235° Southwest 346 398 13,900  Level Washington Center
07:38AM 39.5219 -74.1844 247° West 346 398 13,900 -300 Level Washington Center
07:39AM 39.5272 -74.3028 273° West 324 373 13,300 -1,080 Descending Washington Center
07:40AM 39.5283 -74.4106 271° West 318 366 11,800 -1,560 Descending Washington Center
07:42AM 39.5333 -74.5667 272° West 267 307 9,500 -1,140 Descending Philadelphia TRACON
07:43AM 39.5333 -74.6500 270° West 257 296 9,000 -300 Descending Philadelphia TRACON
07:44AM 39.5333 -74.7500 270° West 258 297 9,000 -420 Level Philadelphia TRACON
07:45AM 39.5333 -74.8500 270° West 256 295 8,200 -1,020 Descending Philadelphia TRACON
07:46AM 39.5333 -74.9333 270° West 261 300 7,000 -660 Descending Philadelphia TRACON
07:47AM 39.5833 -75.0000 314° West 264 304 7,000 -120 Level Philadelphia TRACON
07:48AM 39.6333 -75.0500 322° Northwest 264 304 6,800 -540 Descending Philadelphia TRACON
07:49AM 39.7000 -75.0500 360° North 245 282 6,000 -780 Descending Philadelphia TRACON
07:50AM 39.7500 -75.0167 27° Northeast 198 228 5,300 -1,020 Descending Philadelphia TRACON
07:51AM 39.8167 -75.0000 11° North 196 226 3,900 -1,200 Descending Philadelphia TRACON
07:52AM 39.8500 -75.0333 322° Northwest 185 213 2,900 -900 Descending Philadelphia TRACON
07:53AM 39.9000 -75.0667 333° Northwest 159 183 2,100 -780 Descending Philadelphia TRACON